sensor_id;sensor_type;location;lat;lon;timestamp;pressure;altitude;pressure_sealevel;temperature;humidity
48790;BME280;41718;51.980;5.734;2023-06-04T00:02:11;101814.69;;;11.83;100.00
48790;BME280;41718;51.980;5.734;2023-06-04T00:07:13;101805.84;;;11.77;100.00
48790;BME280;41718;51.980;5.734;2023-06-04T00:12:14;101798.06;;;11.77;100.00
48790;BME280;41718;51.980;5.734;2023-06-04T00:17:16;101792.63;;;11.67;100.00
48790;BME280;41718;51.980;5.734;2023-06-04T00:22:17;101798.34;;;11.54;100.00
48790;BME280;41718;51.980;5.734;2023-06-04T00:27:19;101793.19;;;11.56;100.00
48790;BME280;41718;51.980;5.734;2023-06-04T00:32:20;101791.97;;;11.41;100.00
48790;BME280;41718;51.980;5.734;2023-06-04T00:37:22;101793.59;;;11.38;100.00
48790;BME280;41718;51.980;5.734;2023-06-04T00:42:24;101777.06;;;11.34;100.00
48790;BME280;41718;51.980;5.734;2023-06-04T00:47:25;101775.00;;;11.21;100.00
48790;BME280;41718;51.980;5.734;2023-06-04T00:52:27;101768.66;;;11.10;100.00
48790;BME280;41718;51.980;5.734;2023-06-04T00:57:29;101777.25;;;11.09;100.00
48790;BME280;41718;51.980;5.734;2023-06-04T01:02:31;101768.19;;;10.93;100.00
48790;BME280;41718;51.980;5.734;2023-06-04T01:07:35;101762.78;;;10.85;100.00
48790;BME280;41718;51.980;5.734;2023-06-04T01:12:39;101751.22;;;10.73;100.00
48790;BME280;41718;51.980;5.734;2023-06-04T01:17:44;101754.44;;;10.66;100.00
48790;BME280;41718;51.980;5.734;2023-06-04T01:27:55;101739.41;;;10.52;100.00
48790;BME280;41718;51.980;5.734;2023-06-04T01:33:02;101736.28;;;10.34;100.00
48790;BME280;41718;51.980;5.734;2023-06-04T01:38:04;101736.09;;;10.28;100.00
48790;BME280;41718;51.980;5.734;2023-06-04T01:43:06;101724.59;;;10.20;100.00
48790;BME280;41718;51.980;5.734;2023-06-04T01:48:07;101722.53;;;10.09;100.00
48790;BME280;41718;51.980;5.734;2023-06-04T01:53:09;101709.63;;;10.09;100.00
48790;BME280;41718;51.980;5.734;2023-06-04T01:58:11;101710.41;;;10.07;100.00
48790;BME280;41718;51.980;5.734;2023-06-04T02:03:12;101710.00;;;9.93;100.00
48790;BME280;41718;51.980;5.734;2023-06-04T02:08:17;101714.91;;;9.86;100.00
48790;BME280;41718;51.980;5.734;2023-06-04T02:13:21;101706.69;;;9.70;100.00
48790;BME280;41718;51.980;5.734;2023-06-04T02:18:23;101698.97;;;9.72;100.00
48790;BME280;41718;51.980;5.734;2023-06-04T02:23:26;101703.09;;;9.67;100.00
48790;BME280;41718;51.980;5.734;2023-06-04T02:28:28;101696.00;;;9.60;100.00
48790;BME280;41718;51.980;5.734;2023-06-04T02:33:29;101686.38;;;9.55;100.00
48790;BME280;41718;51.980;5.734;2023-06-04T02:38:31;101693.63;;;9.40;100.00
48790;BME280;41718;51.980;5.734;2023-06-04T02:43:32;101693.63;;;9.40;100.00
48790;BME280;41718;51.980;5.734;2023-06-04T02:48:34;101692.22;;;9.24;100.00
48790;BME280;41718;51.980;5.734;2023-06-04T02:53:36;101683.69;;;9.25;100.00
48790;BME280;41718;51.980;5.734;2023-06-04T02:58:48;101688.56;;;9.18;100.00
48790;BME280;41718;51.980;5.734;2023-06-04T03:03:50;101676.53;;;9.18;100.00
48790;BME280;41718;51.980;5.734;2023-06-04T03:08:52;101679.66;;;9.08;100.00
48790;BME280;41718;51.980;5.734;2023-06-04T03:13:54;101681.03;;;8.98;100.00
48790;BME280;41718;51.980;5.734;2023-06-04T03:18:55;101678.94;;;8.88;100.00
48790;BME280;41718;51.980;5.734;2023-06-04T03:23:57;101684.94;;;8.87;100.00
48790;BME280;41718;51.980;5.734;2023-06-04T03:28:59;101677.81;;;8.80;100.00
48790;BME280;41718;51.980;5.734;2023-06-04T03:34:01;101670.13;;;8.82;100.00
48790;BME280;41718;51.980;5.734;2023-06-04T03:39:02;101659.44;;;8.72;100.00
48790;BME280;41718;51.980;5.734;2023-06-04T03:44:04;101664.56;;;8.71;100.00
48790;BME280;41718;51.980;5.734;2023-06-04T03:49:06;101669.28;;;8.83;100.00
48790;BME280;41718;51.980;5.734;2023-06-04T03:54:07;101668.28;;;8.79;100.00
48790;BME280;41718;51.980;5.734;2023-06-04T03:59:11;101666.03;;;8.88;100.00
48790;BME280;41718;51.980;5.734;2023-06-04T04:04:15;101671.81;;;8.81;100.00
48790;BME280;41718;51.980;5.734;2023-06-04T04:09:16;101673.78;;;8.88;100.00
48790;BME280;41718;51.980;5.734;2023-06-04T04:14:18;101686.50;;;8.84;100.00
48790;BME280;41718;51.980;5.734;2023-06-04T04:19:20;101685.94;;;8.91;100.00
48790;BME280;41718;51.980;5.734;2023-06-04T04:24:26;101687.22;;;9.03;100.00
48790;BME280;41718;51.980;5.734;2023-06-04T04:29:28;101685.78;;;9.12;100.00
48790;BME280;41718;51.980;5.734;2023-06-04T04:34:33;101685.44;;;9.26;100.00
48790;BME280;41718;51.980;5.734;2023-06-04T04:39:35;101686.19;;;9.49;100.00
48790;BME280;41718;51.980;5.734;2023-06-04T04:44:40;101676.75;;;9.77;100.00
48790;BME280;41718;51.980;5.734;2023-06-04T04:49:44;101676.22;;;9.87;100.00
48790;BME280;41718;51.980;5.734;2023-06-04T04:54:47;101689.03;;;10.13;100.00
48790;BME280;41718;51.980;5.734;2023-06-04T04:59:49;101675.91;;;10.33;100.00
48790;BME280;41718;51.980;5.734;2023-06-04T05:04:51;101680.09;;;10.60;100.00
48790;BME280;41718;51.980;5.734;2023-06-04T05:09:52;101686.53;;;10.73;100.00
48790;BME280;41718;51.980;5.734;2023-06-04T05:14:54;101684.88;;;11.08;100.00
48790;BME280;41718;51.980;5.734;2023-06-04T05:19:58;101685.50;;;11.32;100.00
48790;BME280;41718;51.980;5.734;2023-06-04T05:25:13;101682.84;;;11.64;100.00
48790;BME280;41718;51.980;5.734;2023-06-04T05:30:18;101676.19;;;12.13;100.00
48790;BME280;41718;51.980;5.734;2023-06-04T05:35:20;101693.59;;;12.18;100.00
48790;BME280;41718;51.980;5.734;2023-06-04T05:40:22;101695.59;;;12.71;100.00
48790;BME280;41718;51.980;5.734;2023-06-04T05:45:24;101702.22;;;13.02;100.00
48790;BME280;41718;51.980;5.734;2023-06-04T05:50:25;101704.94;;;13.08;100.00
48790;BME280;41718;51.980;5.734;2023-06-04T05:55:27;101716.06;;;13.48;100.00
48790;BME280;41718;51.980;5.734;2023-06-04T06:00:30;101725.88;;;13.63;100.00
48790;BME280;41718;51.980;5.734;2023-06-04T06:05:31;101729.97;;;14.04;100.00
48790;BME280;41718;51.980;5.734;2023-06-04T06:10:33;101733.75;;;14.25;100.00
48790;BME280;41718;51.980;5.734;2023-06-04T06:15:34;101741.75;;;14.39;100.00
48790;BME280;41718;51.980;5.734;2023-06-04T06:20:36;101756.91;;;14.69;100.00
48790;BME280;41718;51.980;5.734;2023-06-04T06:25:37;101764.00;;;14.79;100.00
48790;BME280;41718;51.980;5.734;2023-06-04T06:30:41;101778.97;;;14.94;100.00
48790;BME280;41718;51.980;5.734;2023-06-04T06:35:43;101788.03;;;15.26;100.00
48790;BME280;41718;51.980;5.734;2023-06-04T06:40:47;101789.19;;;15.57;100.00
48790;BME280;41718;51.980;5.734;2023-06-04T06:45:49;101810.06;;;15.59;100.00
48790;BME280;41718;51.980;5.734;2023-06-04T06:50:51;101815.53;;;15.77;100.00
48790;BME280;41718;51.980;5.734;2023-06-04T06:55:52;101827.16;;;16.17;100.00
48790;BME280;41718;51.980;5.734;2023-06-04T07:00:54;101841.88;;;16.11;100.00
48790;BME280;41718;51.980;5.734;2023-06-04T07:05:58;101844.13;;;16.76;100.00
48790;BME280;41718;51.980;5.734;2023-06-04T07:11:02;101903.56;;;17.12;100.00
48790;BME280;41718;51.980;5.734;2023-06-04T07:16:04;102011.53;;;16.94;100.00
48790;BME280;41718;51.980;5.734;2023-06-04T07:21:06;102017.06;;;17.43;100.00
48790;BME280;41718;51.980;5.734;2023-06-04T07:26:08;102020.91;;;18.28;100.00
48790;BME280;41718;51.980;5.734;2023-06-04T07:31:09;102026.03;;;17.84;100.00
48790;BME280;41718;51.980;5.734;2023-06-04T07:36:15;102029.63;;;18.16;100.00
48790;BME280;41718;51.980;5.734;2023-06-04T07:41:17;102039.25;;;18.30;100.00
48790;BME280;41718;51.980;5.734;2023-06-04T07:46:18;102041.03;;;18.47;100.00
48790;BME280;41718;51.980;5.734;2023-06-04T07:51:20;102032.31;;;18.45;100.00
48790;BME280;41718;51.980;5.734;2023-06-04T07:56:22;102039.28;;;18.54;100.00
48790;BME280;41718;51.980;5.734;2023-06-04T08:01:23;102030.53;;;19.28;100.00
48790;BME280;41718;51.980;5.734;2023-06-04T08:06:25;102029.66;;;19.34;100.00
48790;BME280;41718;51.980;5.734;2023-06-04T08:11:28;102027.88;;;19.48;98.87
48790;BME280;41718;51.980;5.734;2023-06-04T08:16:31;102022.63;;;19.51;98.41
48790;BME280;41718;51.980;5.734;2023-06-04T08:21:33;102034.81;;;19.72;98.17
48790;BME280;41718;51.980;5.734;2023-06-04T08:26:35;102031.97;;;20.21;98.93
48790;BME280;41718;51.980;5.734;2023-06-04T08:31:36;102024.09;;;20.21;92.30
48790;BME280;41718;51.980;5.734;2023-06-04T08:36:38;102030.28;;;20.06;92.93
48790;BME280;41718;51.980;5.734;2023-06-04T08:41:45;102030.84;;;20.62;92.97
48790;BME280;41718;51.980;5.734;2023-06-04T08:46:51;102028.84;;;20.91;92.43
48790;BME280;41718;51.980;5.734;2023-06-04T08:51:55;102027.38;;;20.60;88.91
48790;BME280;41718;51.980;5.734;2023-06-04T08:56:57;102029.81;;;20.83;90.66
48790;BME280;41718;51.980;5.734;2023-06-04T09:01:59;102030.25;;;21.26;86.88
48790;BME280;41718;51.980;5.734;2023-06-04T09:07:03;102035.06;;;20.83;86.50
48790;BME280;41718;51.980;5.734;2023-06-04T09:12:09;102029.88;;;21.63;85.67
48790;BME280;41718;51.980;5.734;2023-06-04T09:17:11;102026.13;;;21.82;86.91
48790;BME280;41718;51.980;5.734;2023-06-04T09:22:13;102022.78;;;21.69;84.90
48790;BME280;41718;51.980;5.734;2023-06-04T09:27:19;102029.78;;;22.38;84.59
48790;BME280;41718;51.980;5.734;2023-06-04T09:32:26;102013.88;;;22.43;83.06
48790;BME280;41718;51.980;5.734;2023-06-04T09:37:28;102008.97;;;22.74;76.74
48790;BME280;41718;51.980;5.734;2023-06-04T09:42:30;102012.38;;;22.27;80.04
48790;BME280;41718;51.980;5.734;2023-06-04T09:47:41;102003.13;;;22.55;76.00
48790;BME280;41718;51.980;5.734;2023-06-04T09:52:43;102010.25;;;23.02;77.70
48790;BME280;41718;51.980;5.734;2023-06-04T09:57:50;102016.69;;;22.85;74.82
48790;BME280;41718;51.980;5.734;2023-06-04T10:03:02;102010.03;;;22.62;73.16
48790;BME280;41718;51.980;5.734;2023-06-04T10:08:04;102011.34;;;22.91;73.02
48790;BME280;41718;51.980;5.734;2023-06-04T10:13:11;102024.91;;;22.69;74.27
48790;BME280;41718;51.980;5.734;2023-06-04T10:18:16;102012.69;;;22.64;73.61
48790;BME280;41718;51.980;5.734;2023-06-04T10:23:18;102010.97;;;23.12;71.89
48790;BME280;41718;51.980;5.734;2023-06-04T10:28:23;102006.19;;;23.33;73.31
48790;BME280;41718;51.980;5.734;2023-06-04T10:33:25;102007.50;;;23.55;73.12
48790;BME280;41718;51.980;5.734;2023-06-04T10:38:27;102009.94;;;23.21;72.44
48790;BME280;41718;51.980;5.734;2023-06-04T10:43:32;102001.16;;;24.05;72.74
48790;BME280;41718;51.980;5.734;2023-06-04T10:48:53;102002.50;;;23.40;71.41
48790;BME280;41718;51.980;5.734;2023-06-04T10:53:56;102006.09;;;23.80;72.78
48790;BME280;41718;51.980;5.734;2023-06-04T10:58:59;102003.34;;;23.42;70.26
48790;BME280;41718;51.980;5.734;2023-06-04T11:04:00;102004.97;;;23.92;72.10
48790;BME280;41718;51.980;5.734;2023-06-04T11:09:05;102005.31;;;23.75;72.23
48790;BME280;41718;51.980;5.734;2023-06-04T11:14:08;101994.31;;;24.32;72.91
48790;BME280;41718;51.980;5.734;2023-06-04T11:19:10;101986.94;;;24.82;71.49
48790;BME280;41718;51.980;5.734;2023-06-04T11:24:12;101991.91;;;24.62;72.55
48790;BME280;41718;51.980;5.734;2023-06-04T11:29:14;101990.19;;;23.84;71.68
48790;BME280;41718;51.980;5.734;2023-06-04T11:34:24;101994.09;;;24.04;73.62
48790;BME280;41718;51.980;5.734;2023-06-04T11:39:34;101986.44;;;24.31;71.81
48790;BME280;41718;51.980;5.734;2023-06-04T11:44:36;101988.06;;;24.38;72.48
48790;BME280;41718;51.980;5.734;2023-06-04T11:49:38;101977.94;;;24.18;72.91
48790;BME280;41718;51.980;5.734;2023-06-04T11:54:40;101974.84;;;25.05;71.84
48790;BME280;41718;51.980;5.734;2023-06-04T11:59:42;101961.28;;;25.19;70.52
48790;BME280;41718;51.980;5.734;2023-06-04T12:04:44;101961.66;;;25.03;72.24
48790;BME280;41718;51.980;5.734;2023-06-04T12:09:47;101955.81;;;25.23;70.38
48790;BME280;41718;51.980;5.734;2023-06-04T12:14:58;101957.47;;;24.96;70.58
48790;BME280;41718;51.980;5.734;2023-06-04T12:20:00;101952.41;;;25.20;70.34
48790;BME280;41718;51.980;5.734;2023-06-04T12:25:02;101950.34;;;25.29;69.00
48790;BME280;41718;51.980;5.734;2023-06-04T12:30:06;101952.47;;;24.84;67.55
48790;BME280;41718;51.980;5.734;2023-06-04T12:35:08;101952.00;;;25.33;68.78
48790;BME280;41718;51.980;5.734;2023-06-04T12:40:10;101950.38;;;24.97;68.90
48790;BME280;41718;51.980;5.734;2023-06-04T12:45:13;101953.06;;;24.25;68.79
48790;BME280;41718;51.980;5.734;2023-06-04T12:50:15;101949.66;;;24.56;70.02
48790;BME280;41718;51.980;5.734;2023-06-04T12:55:16;101940.91;;;25.50;70.53
48790;BME280;41718;51.980;5.734;2023-06-04T13:00:18;101941.97;;;25.74;71.37
48790;BME280;41718;51.980;5.734;2023-06-04T13:05:20;101932.94;;;25.81;68.88
48790;BME280;41718;51.980;5.734;2023-06-04T13:10:21;101943.38;;;24.94;69.22
48790;BME280;41718;51.980;5.734;2023-06-04T13:15:24;101929.44;;;25.50;69.50
48790;BME280;41718;51.980;5.734;2023-06-04T13:20:27;101940.81;;;24.91;69.43
48790;BME280;41718;51.980;5.734;2023-06-04T13:25:30;101940.38;;;25.08;68.94
48790;BME280;41718;51.980;5.734;2023-06-04T13:30:37;101944.44;;;24.87;70.12
48790;BME280;41718;51.980;5.734;2023-06-04T13:35:40;101931.63;;;24.72;70.66
48790;BME280;41718;51.980;5.734;2023-06-04T13:40:43;101942.91;;;24.46;70.43
48790;BME280;41718;51.980;5.734;2023-06-04T13:45:46;101930.72;;;24.39;69.67
48790;BME280;41718;51.980;5.734;2023-06-04T13:50:48;101916.19;;;24.88;68.96
48790;BME280;41718;51.980;5.734;2023-06-04T13:55:49;101929.41;;;24.19;70.33
48790;BME280;41718;51.980;5.734;2023-06-04T14:00:58;101931.69;;;24.33;70.60
48790;BME280;41718;51.980;5.734;2023-06-04T14:06:00;101924.41;;;24.44;70.51
48790;BME280;41718;51.980;5.734;2023-06-04T14:11:02;101914.19;;;24.27;69.18
48790;BME280;41718;51.980;5.734;2023-06-04T14:16:04;101908.16;;;24.24;71.44
48790;BME280;41718;51.980;5.734;2023-06-04T14:21:08;101910.53;;;23.97;72.20
48790;BME280;41718;51.980;5.734;2023-06-04T14:26:10;101908.16;;;23.87;74.10
48790;BME280;41718;51.980;5.734;2023-06-04T14:31:12;101914.03;;;23.59;72.37
48790;BME280;41718;51.980;5.734;2023-06-04T14:36:16;101905.22;;;23.60;73.24
48790;BME280;41718;51.980;5.734;2023-06-04T14:41:18;101906.78;;;24.08;73.46
48790;BME280;41718;51.980;5.734;2023-06-04T14:46:20;101894.75;;;23.56;73.77
48790;BME280;41718;51.980;5.734;2023-06-04T14:51:22;101895.03;;;23.43;74.13
48790;BME280;41718;51.980;5.734;2023-06-04T14:56:24;101894.16;;;23.41;73.85
48790;BME280;41718;51.980;5.734;2023-06-04T15:01:27;101881.81;;;23.43;74.89
48790;BME280;41718;51.980;5.734;2023-06-04T15:06:28;101887.88;;;23.48;77.01
48790;BME280;41718;51.980;5.734;2023-06-04T15:11:32;101882.63;;;23.45;74.47
48790;BME280;41718;51.980;5.734;2023-06-04T15:16:34;101880.72;;;23.12;75.60
48790;BME280;41718;51.980;5.734;2023-06-04T15:21:35;101873.91;;;23.42;75.54
48790;BME280;41718;51.980;5.734;2023-06-04T15:26:38;101875.78;;;22.95;75.42
48790;BME280;41718;51.980;5.734;2023-06-04T15:31:40;101865.81;;;23.09;75.91
48790;BME280;41718;51.980;5.734;2023-06-04T15:36:41;101863.19;;;23.09;76.13
48790;BME280;41718;51.980;5.734;2023-06-04T15:41:43;101866.19;;;23.31;75.63
48790;BME280;41718;51.980;5.734;2023-06-04T15:46:45;101879.53;;;22.82;76.19
48790;BME280;41718;51.980;5.734;2023-06-04T15:51:46;101871.09;;;23.09;77.28
48790;BME280;41718;51.980;5.734;2023-06-04T15:56:48;101870.63;;;22.89;77.51
48790;BME280;41718;51.980;5.734;2023-06-04T16:01:50;101869.06;;;22.77;76.12
48790;BME280;41718;51.980;5.734;2023-06-04T16:06:52;101870.91;;;22.72;77.69
48790;BME280;41718;51.980;5.734;2023-06-04T16:11:53;101864.41;;;22.91;77.63
48790;BME280;41718;51.980;5.734;2023-06-04T16:16:55;101858.34;;;22.85;77.80
48790;BME280;41718;51.980;5.734;2023-06-04T16:21:58;101862.06;;;22.74;78.59
48790;BME280;41718;51.980;5.734;2023-06-04T16:26:59;101853.06;;;22.85;78.25
48790;BME280;41718;51.980;5.734;2023-06-04T16:32:01;101845.56;;;23.10;77.52
48790;BME280;41718;51.980;5.734;2023-06-04T16:37:02;101845.56;;;23.10;79.17
48790;BME280;41718;51.980;5.734;2023-06-04T16:42:04;101845.59;;;23.07;80.25
48790;BME280;41718;51.980;5.734;2023-06-04T16:47:06;101844.28;;;22.84;81.52
48790;BME280;41718;51.980;5.734;2023-06-04T16:52:08;101827.31;;;23.39;82.81
48790;BME280;41718;51.980;5.734;2023-06-04T16:57:09;101842.56;;;23.26;80.51
48790;BME280;41718;51.980;5.734;2023-06-04T17:02:12;101847.28;;;23.11;81.77
48790;BME280;41718;51.980;5.734;2023-06-04T17:07:14;101858.59;;;23.17;81.58
48790;BME280;41718;51.980;5.734;2023-06-04T17:12:16;101842.41;;;23.33;81.80
48790;BME280;41718;51.980;5.734;2023-06-04T17:17:17;101840.38;;;23.05;82.25
48790;BME280;41718;51.980;5.734;2023-06-04T17:22:19;101849.72;;;23.20;82.89
48790;BME280;41718;51.980;5.734;2023-06-04T17:27:20;101844.09;;;22.95;82.94
48790;BME280;41718;51.980;5.734;2023-06-04T17:32:22;101844.53;;;22.72;83.60
48790;BME280;41718;51.980;5.734;2023-06-04T17:37:24;101841.84;;;22.75;83.89
48790;BME280;41718;51.980;5.734;2023-06-04T17:42:26;101845.41;;;22.25;84.48
48790;BME280;41718;51.980;5.734;2023-06-04T17:47:27;101853.19;;;22.32;85.47
48790;BME280;41718;51.980;5.734;2023-06-04T17:52:29;101853.72;;;22.51;86.51
48790;BME280;41718;51.980;5.734;2023-06-04T17:57:30;101858.31;;;22.40;85.96
48790;BME280;41718;51.980;5.734;2023-06-04T18:02:32;101856.22;;;22.08;85.75
48790;BME280;41718;51.980;5.734;2023-06-04T18:07:34;101861.66;;;21.97;87.76
48790;BME280;41718;51.980;5.734;2023-06-04T18:12:35;101870.88;;;21.68;87.48
48790;BME280;41718;51.980;5.734;2023-06-04T18:17:37;101868.38;;;21.59;88.07
48790;BME280;41718;51.980;5.734;2023-06-04T18:22:39;101870.94;;;21.64;89.77
48790;BME280;41718;51.980;5.734;2023-06-04T18:27:41;101885.19;;;20.75;95.21
48790;BME280;41718;51.980;5.734;2023-06-04T18:32:42;101888.03;;;20.52;99.01
48790;BME280;41718;51.980;5.734;2023-06-04T18:37:48;101897.84;;;20.30;100.00
48790;BME280;41718;51.980;5.734;2023-06-04T18:42:49;101908.56;;;20.04;100.00
48790;BME280;41718;51.980;5.734;2023-06-04T18:47:51;101914.03;;;19.72;100.00
48790;BME280;41718;51.980;5.734;2023-06-04T18:52:54;101914.13;;;19.52;100.00
48790;BME280;41718;51.980;5.734;2023-06-04T18:57:59;101921.22;;;19.30;100.00
48790;BME280;41718;51.980;5.734;2023-06-04T19:03:03;101919.59;;;18.91;100.00
48790;BME280;41718;51.980;5.734;2023-06-04T19:08:05;101924.84;;;18.70;100.00
48790;BME280;41718;51.980;5.734;2023-06-04T19:13:10;101935.34;;;18.50;100.00
48790;BME280;41718;51.980;5.734;2023-06-04T19:18:11;101937.09;;;18.39;100.00
48790;BME280;41718;51.980;5.734;2023-06-04T19:23:13;101925.69;;;18.14;100.00
48790;BME280;41718;51.980;5.734;2023-06-04T19:28:15;101935.28;;;17.89;100.00
48790;BME280;41718;51.980;5.734;2023-06-04T19:33:18;101935.19;;;17.64;100.00
48790;BME280;41718;51.980;5.734;2023-06-04T19:38:24;101933.31;;;17.34;100.00
48790;BME280;41718;51.980;5.734;2023-06-04T19:43:26;101932.38;;;17.23;100.00
48790;BME280;41718;51.980;5.734;2023-06-04T19:48:28;101921.88;;;17.18;100.00
48790;BME280;41718;51.980;5.734;2023-06-04T19:53:30;101909.63;;;17.04;100.00
48790;BME280;41718;51.980;5.734;2023-06-04T19:58:31;101893.81;;;16.82;100.00
48790;BME280;41718;51.980;5.734;2023-06-04T20:03:33;101877.91;;;16.56;100.00
48790;BME280;41718;51.980;5.734;2023-06-04T20:08:36;101851.75;;;16.46;100.00
48790;BME280;41718;51.980;5.734;2023-06-04T20:13:41;101842.97;;;16.34;100.00
48790;BME280;41718;51.980;5.734;2023-06-04T20:18:43;101841.97;;;16.20;100.00
48790;BME280;41718;51.980;5.734;2023-06-04T20:23:45;101839.16;;;15.99;100.00
48790;BME280;41718;51.980;5.734;2023-06-04T20:28:47;101825.09;;;15.81;100.00
48790;BME280;41718;51.980;5.734;2023-06-04T20:33:50;101809.34;;;15.71;100.00
48790;BME280;41718;51.980;5.734;2023-06-04T20:38:58;101794.34;;;15.50;100.00
48790;BME280;41718;51.980;5.734;2023-06-04T20:44:01;101788.13;;;15.37;100.00
48790;BME280;41718;51.980;5.734;2023-06-04T20:49:03;101781.81;;;15.15;100.00
48790;BME280;41718;51.980;5.734;2023-06-04T20:54:05;101781.72;;;15.06;100.00
48790;BME280;41718;51.980;5.734;2023-06-04T20:59:06;101775.34;;;14.81;100.00
48790;BME280;41718;51.980;5.734;2023-06-04T21:04:08;101773.41;;;14.68;100.00
48790;BME280;41718;51.980;5.734;2023-06-04T21:09:12;101777.75;;;14.66;100.00
48790;BME280;41718;51.980;5.734;2023-06-04T21:14:13;101780.19;;;14.55;100.00
48790;BME280;41718;51.980;5.734;2023-06-04T21:19:15;101779.00;;;14.35;100.00
48790;BME280;41718;51.980;5.734;2023-06-04T21:24:16;101771.94;;;14.26;100.00
48790;BME280;41718;51.980;5.734;2023-06-04T21:29:18;101765.56;;;14.05;100.00
48790;BME280;41718;51.980;5.734;2023-06-04T21:34:20;101772.19;;;13.87;100.00
48790;BME280;41718;51.980;5.734;2023-06-04T21:39:22;101769.59;;;13.85;100.00
48790;BME280;41718;51.980;5.734;2023-06-04T21:44:25;101766.81;;;13.74;100.00
48790;BME280;41718;51.980;5.734;2023-06-04T21:49:30;101767.50;;;13.66;100.00
48790;BME280;41718;51.980;5.734;2023-06-04T21:54:31;101767.22;;;13.49;100.00
48790;BME280;41718;51.980;5.734;2023-06-04T21:59:33;101764.50;;;13.41;100.00
48790;BME280;41718;51.980;5.734;2023-06-04T22:04:39;101769.47;;;13.29;100.00
48790;BME280;41718;51.980;5.734;2023-06-04T22:09:41;101771.97;;;13.23;100.00
48790;BME280;41718;51.980;5.734;2023-06-04T22:14:42;101771.09;;;13.22;100.00
48790;BME280;41718;51.980;5.734;2023-06-04T22:19:55;101775.75;;;12.98;100.00
48790;BME280;41718;51.980;5.734;2023-06-04T22:24:58;101769.66;;;12.96;100.00
48790;BME280;41718;51.980;5.734;2023-06-04T22:29:59;101774.72;;;12.88;100.00
48790;BME280;41718;51.980;5.734;2023-06-04T22:35:01;101780.47;;;12.75;100.00
48790;BME280;41718;51.980;5.734;2023-06-04T22:40:03;101770.66;;;12.60;100.00
48790;BME280;41718;51.980;5.734;2023-06-04T22:45:05;101774.16;;;12.62;100.00
48790;BME280;41718;51.980;5.734;2023-06-04T22:50:07;101769.53;;;12.49;100.00
48790;BME280;41718;51.980;5.734;2023-06-04T22:55:10;101772.25;;;12.54;100.00
48790;BME280;41718;51.980;5.734;2023-06-04T23:00:12;101775.22;;;12.31;100.00
48790;BME280;41718;51.980;5.734;2023-06-04T23:05:13;101762.13;;;12.27;100.00
48790;BME280;41718;51.980;5.734;2023-06-04T23:10:15;101777.56;;;12.20;100.00
48790;BME280;41718;51.980;5.734;2023-06-04T23:15:21;101781.47;;;12.03;100.00
48790;BME280;41718;51.980;5.734;2023-06-04T23:20:23;101778.66;;;11.96;100.00
48790;BME280;41718;51.980;5.734;2023-06-04T23:25:24;101781.09;;;11.88;100.00
48790;BME280;41718;51.980;5.734;2023-06-04T23:30:26;101776.47;;;11.78;100.00
48790;BME280;41718;51.980;5.734;2023-06-04T23:35:28;101775.44;;;11.71;100.00
48790;BME280;41718;51.980;5.734;2023-06-04T23:40:29;101771.88;;;11.66;100.00
48790;BME280;41718;51.980;5.734;2023-06-04T23:45:31;101763.63;;;11.48;100.00
48790;BME280;41718;51.980;5.734;2023-06-04T23:50:32;101754.69;;;11.36;100.00
48790;BME280;41718;51.980;5.734;2023-06-04T23:55:34;101758.94;;;11.34;100.00
